Latest Weather Observations for Launceston Airport

IDT60801

Issued at 6:01 am EST Friday 31 July 2015 (issued every 30 minutes, with the page automatically refreshed every 10 minutes)

About weather observations | Map of weather stations | Latest weather observations for TAS | Other Formats
Station Details ID: 091311 Name: LAUNCESTON AIRPORT Lat: -41.55 Lon: 147.21 Height: 166.9 m
Data from the previous 72 hours. | See also: Recent months at Launceston Airport
Date/Time
EST
Temp
°C
App
Temp
°C
Dew
Point
Rel
Hum
%
Delta-T
°C
Wind Press
QNH
hPa
Press
MSL
hPa
Rain
since 9 am
mm
Dir
 
Spd
km/h
Gust
km/h
Spd
kts
Gust
kts
31/06:00am -0.2 -4.9 -1.5 91 0.4 N 13 17 7 9 1013.6 1014.0 -
31/05:30am -0.2 -5.3 -1.9 88 0.6 N 15 17 8 9 1013.4 1013.8 6.0
31/05:00am 1.9 -3.0 -0.2 86 0.8 N 15 19 8 10 1013.2 1013.6 6.0
31/04:30am -0.2 -5.3 -2.1 87 0.6 N 15 17 8 9 1012.8 1013.2 6.0
31/04:00am 1.1 -3.1 -1.1 85 0.8 N 11 13 6 7 1012.5 1012.9 6.0
31/03:30am 1.9 -2.2 -0.5 84 0.9 N 11 13 6 7 1012.1 1012.5 6.0
31/03:00am 3.7 -1.7 -1.1 71 1.8 WNW 17 20 9 11 1011.6 1012.0 6.0
31/02:30am 3.9 -1.0 -0.3 74 1.6 NW 15 17 8 9 1011.3 1011.7 6.0
31/02:00am 4.2 -1.1 -0.4 72 1.7 WNW 17 20 9 11 1011.0 1011.4 6.0
31/01:30am 5.8 -0.1 -0.9 62 2.5 W 20 26 11 14 1010.4 1010.8 6.0
31/01:00am 4.0 -0.4 0.5 78 1.4 WNW 13 17 7 9 1010.0 1010.4 6.0
31/12:30am 5.4 1.7 0.2 69 2.0 SSE 9 17 5 9 1009.0 1009.4 6.0
31/12:00am 4.1 -1.1 2.3 88 0.7 N 19 24 10 13 1008.5 1008.9 6.0
 
Date/Time
EST
Temp
°C
App
Temp
°C
Dew
Point
Rel
Hum
%
Delta-T
°C
Wind Press
QNH
hPa
Press
MSL
hPa
Rain
since 9 am
mm
Dir
 
Spd
km/h
Gust
km/h
Spd
kts
Gust
kts
30/11:30pm 5.0 0.7 1.1 76 1.5 NW 13 17 7 9 1007.7 1008.1 6.0
30/11:00pm 6.2 0.5 2.7 78 1.5 WNW 22 30 12 16 1006.9 1007.2 6.0
30/10:30pm 7.1 2.0 3.3 77 1.6 WNW 19 24 10 13 1006.5 1006.8 6.0
30/10:00pm 7.6 2.5 4.0 78 1.6 WNW 20 28 11 15 1005.5 1005.9 6.0
30/09:30pm 7.4 2.6 5.7 89 0.8 NNW 20 24 11 13 1004.7 1005.1 6.0
30/09:00pm 7.3 2.4 5.3 87 0.9 NW 20 26 11 14 1003.8 1004.2 6.0
30/08:30pm 8.2 1.9 5.8 85 1.1 NW 28 35 15 19 1003.0 1003.4 6.0
30/08:19pm 8.3 1.4 7.2 93 0.5 NNW 33 43 18 23 1003.2 1003.6 6.0
30/08:00pm 8.2 1.0 7.6 96 0.3 NNW 35 46 19 25 1003.2 1003.6 5.6
30/07:30pm 8.0 -0.4 7.2 95 0.4 NNW 41 57 22 31 1003.0 1003.4 4.6
30/07:19pm 7.9 0.6 7.0 94 0.4 NNW 35 54 19 29 1003.1 1003.5 4.6
30/07:02pm 7.8 0.0 6.7 93 0.5 NNW 37 50 20 27 1003.2 1003.6 4.2
30/07:00pm 7.7 -0.1 6.6 93 0.5 NNW 37 50 20 27 1003.3 1003.7 4.2
30/06:30pm 7.6 0.1 6.5 93 0.5 NNW 35 44 19 24 1003.7 1004.1 3.6
30/06:04pm 7.5 -0.4 6.3 92 0.6 NNW 37 50 20 27 1003.9 1004.3 3.2
30/06:00pm 7.5 -0.8 6.3 92 0.6 NNW 39 50 21 27 1004.1 1004.5 3.2
30/05:30pm 7.3 -1.4 6.2 93 0.5 NNW 41 52 22 28 1004.5 1004.9 3.0
30/05:12pm 7.2 -1.5 6.1 93 0.5 NNW 41 54 22 29 1004.7 1005.1 2.2
30/05:00pm 7.2 -1.9 6.1 93 0.5 NNW 43 54 23 29 1004.9 1005.3 2.0
30/04:59pm 7.2 -1.9 6.0 92 0.5 NNW 43 54 23 29 1004.8 1005.2 2.0
30/04:50pm 7.2 -1.9 6.0 92 0.5 NNW 43 61 23 33 1004.9 1005.3 1.8
30/04:49pm 7.2 -1.9 5.8 91 0.6 NNW 43 61 23 33 1004.9 1005.3 1.8
30/04:39pm 7.3 -2.4 5.8 90 0.7 NNW 46 59 25 32 1005.1 1005.5 1.6
30/04:30pm 7.5 -1.8 6.0 90 0.7 NNW 44 61 24 33 1005.3 1005.7 1.2
30/04:22pm 7.5 -1.6 6.1 91 0.6 NNW 43 61 23 33 1005.3 1005.7 1.0
30/04:21pm 7.5 -1.2 6.1 91 0.6 NNW 41 57 22 31 1005.4 1005.8 1.0
30/04:17pm 7.4 -0.9 6.0 91 0.6 NNW 39 54 21 29 1005.4 1005.8 0.8
30/04:05pm 7.3 -2.0 5.9 91 0.6 NNW 44 63 24 34 1005.8 1006.1 0.6
30/04:00pm 7.4 -1.9 6.0 91 0.6 NNW 44 59 24 32 1005.9 1006.2 0.4
30/03:54pm 7.4 -1.7 6.0 91 0.6 NNW 43 57 23 31 1005.9 1006.2 0.4
30/03:53pm 7.4 -1.7 6.0 91 0.6 NNW 43 57 23 31 1005.9 1006.2 0.4
30/03:32pm 7.8 -1.3 6.1 89 0.8 NNW 43 61 23 33 1006.2 1006.5 0.2
30/03:30pm 7.7 -1.4 5.8 88 0.9 NNW 43 59 23 32 1006.3 1006.6 0.2
30/03:04pm 8.3 -1.4 5.6 83 1.2 NNW 46 65 25 35 1006.5 1006.8 0.2
30/03:00pm 8.3 -1.0 5.8 84 1.1 NNW 44 57 24 31 1006.9 1007.2 0.2
30/02:30pm 9.1 -2.0 4.7 74 2.0 NNW 52 70 28 38 1006.9 1007.2 0.2
30/02:13pm 9.7 -1.4 4.3 69 2.4 NNW 52 72 28 39 1007.3 1007.7 0.2
30/02:00pm 9.8 -0.9 4.6 70 2.3 NNW 50 65 27 35 1007.8 1008.2 0.2
30/01:30pm 10.3 -1.1 4.7 68 2.5 NNW 54 72 29 39 1008.2 1008.6 0.2
30/01:10pm 10.3 -0.7 4.9 69 2.5 NNW 52 72 28 39 1008.8 1009.2 0.0
30/01:00pm 10.1 -0.9 4.9 70 2.4 NNW 52 67 28 36 1009.0 1009.4 0.0
30/12:35pm 10.3 0.4 4.7 68 2.5 NNW 46 65 25 35 1009.8 1010.2 0.0
30/12:30pm 10.2 0.4 5.2 71 2.3 NNW 46 59 25 32 1010.0 1010.4 0.0
30/12:04pm 9.8 0.9 5.0 72 2.2 NNW 41 61 22 33 1011.1 1011.5 0.0
30/12:00pm 9.9 0.8 5.7 75 1.9 NNW 43 54 23 29 1011.4 1011.8 0.0
30/11:30am 9.6 1.2 5.4 75 1.9 NNW 39 56 21 30 1012.5 1012.9 0.0
30/11:24am 9.5 1.4 5.1 74 2.0 NNW 37 56 20 30 1012.5 1012.9 0.0
30/11:00am 9.5 2.4 5.5 76 1.8 NNW 32 44 17 24 1013.3 1013.7 0.0
30/10:30am 9.2 2.2 5.9 80 1.5 NNW 32 44 17 24 1014.4 1014.8 0.0
30/10:00am 9.1 2.1 6.0 81 1.4 NNW 32 43 17 23 1014.7 1015.1 0.0
30/09:30am 8.9 1.9 6.2 83 1.3 NNW 32 44 17 24 1015.2 1015.6 0.0
30/09:00am 8.4 2.9 5.7 83 1.2 NNW 24 32 13 17 1015.7 1016.1 0.8
30/08:30am 8.0 2.8 5.6 85 1.1 NNW 22 30 12 16 1016.3 1016.7 0.8
30/08:00am 7.9 2.7 5.7 86 1.0 NNW 22 28 12 15 1016.6 1017.0 0.8
30/07:30am 7.7 3.1 5.7 87 0.9 NNW 19 22 10 12 1016.9 1017.4 0.8
30/07:00am 7.6 2.8 5.6 87 0.9 NNW 20 24 11 13 1016.9 1017.4 0.8
30/06:30am 7.5 2.9 5.6 88 0.9 NNW 19 22 10 12 1017.3 1017.8 0.8
30/06:00am 7.2 1.7 5.7 90 0.7 NNW 24 28 13 15 1017.7 1018.2 0.8
30/05:30am 7.3 1.3 5.3 87 0.9 NNW 26 32 14 17 1017.9 1018.4 0.8
30/05:00am 7.5 2.7 5.6 88 0.9 NNW 20 28 11 15 1018.4 1018.8 0.8
30/04:30am 7.2 2.6 5.5 89 0.8 N 19 24 10 13 1018.7 1019.1 0.8
30/04:00am 6.8 2.2 5.6 92 0.5 N 19 24 10 13 1019.0 1019.4 0.8
30/03:30am 6.7 2.8 5.3 91 0.6 N 15 17 8 9 1019.6 1020.0 0.8
30/03:00am 6.9 2.7 5.5 91 0.6 NNW 17 20 9 11 1019.9 1020.3 0.8
30/02:30am 6.9 2.1 5.7 92 0.5 NNW 20 24 11 13 1020.5 1020.9 0.8
30/02:00am 7.1 1.6 5.7 91 0.6 N 24 30 13 16 1021.2 1021.6 0.6
30/01:30am 7.2 2.1 6.0 92 0.5 N 22 28 12 15 1021.5 1021.9 0.6
30/01:00am 7.4 2.7 6.0 91 0.6 NNW 20 26 11 14 1021.7 1022.2 0.6
30/12:30am 7.9 2.1 6.4 90 0.7 N 26 32 14 17 1021.9 1022.4 0.6
30/12:00am 8.1 3.8 6.9 92 0.6 NNW 19 24 10 13 1022.3 1022.8 0.6
 
Date/Time
EST
Temp
°C
App
Temp
°C
Dew
Point
Rel
Hum
%
Delta-T
°C
Wind Press
QNH
hPa
Press
MSL
hPa
Rain
since 9 am
mm
Dir
 
Spd
km/h
Gust
km/h
Spd
kts
Gust
kts
29/11:30pm 8.0 3.1 6.8 92 0.6 NNW 22 28 12 15 1022.5 1023.0 0.6
29/11:00pm 7.9 3.0 6.8 93 0.5 NNW 22 30 12 16 1022.8 1023.3 0.6
29/10:30pm 8.2 2.6 7.1 93 0.5 NNW 26 32 14 17 1023.1 1023.6 0.6
29/10:15pm 8.3 2.8 7.5 95 0.4 NNW 26 33 14 18 1023.4 1023.9 0.6
29/10:00pm 8.3 2.8 7.7 96 0.3 NNW 26 32 14 17 1023.4 1023.9 0.6
29/09:54pm 8.3 3.6 7.7 96 0.3 NNW 22 32 12 17 1023.5 1024.0 0.6
29/09:32pm 8.2 2.8 7.8 97 0.2 NNW 26 32 14 17 1023.6 1024.1 0.4
29/09:30pm 8.2 3.1 7.8 97 0.2 NNW 24 32 13 17 1023.6 1024.1 0.4
29/09:00pm 8.0 2.9 7.6 97 0.2 NNW 24 30 13 16 1023.7 1024.2 0.4
29/08:30pm 8.1 3.3 7.5 96 0.3 NNW 22 32 12 17 1023.7 1024.2 0.4
29/08:00pm 7.9 3.5 7.3 96 0.3 NNW 20 28 11 15 1023.7 1024.2 0.4
29/07:43pm 7.9 3.5 7.3 96 0.3 NNW 20 24 11 13 1023.8 1024.3 0.4
29/07:30pm 8.0 3.6 7.2 95 0.4 NNW 20 24 11 13 1023.9 1024.4 0.4
29/07:26pm 8.0 3.7 7.2 95 0.4 NNW 19 22 10 12 1024.0 1024.5 0.4
29/07:22pm 8.0 3.7 7.2 95 0.4 NNW 19 24 10 13 1024.0 1024.5 0.4
29/07:08pm 8.0 3.2 7.2 95 0.4 NNW 22 28 12 15 1024.0 1024.5 0.4
29/07:00pm 8.1 3.3 7.3 95 0.4 NNW 22 30 12 16 1024.0 1024.5 0.4
29/06:30pm 8.1 3.0 7.5 96 0.3 NNW 24 30 13 16 1023.9 1024.4 0.4
29/06:00pm 8.3 3.2 7.5 95 0.4 NNW 24 35 13 19 1024.1 1024.6 0.4
29/05:30pm 8.1 2.5 7.3 95 0.4 NNW 26 33 14 18 1023.9 1024.4 0.4
29/05:00pm 8.2 2.7 7.4 95 0.4 NNW 26 33 14 18 1024.2 1024.7 0.4
29/04:30pm 8.4 3.3 7.8 96 0.3 NNW 24 32 13 17 1024.2 1024.7 0.4
29/04:18pm 8.4 3.3 7.6 95 0.4 N 24 32 13 17 1024.4 1024.8 0.4
29/04:00pm 8.5 3.0 7.6 94 0.4 NNW 26 33 14 18 1024.7 1025.1 0.4
29/03:57pm 8.5 3.0 7.6 94 0.4 NNW 26 33 14 18 1024.8 1025.2 0.2
29/03:34pm 9.1 3.1 7.1 87 0.9 NNW 28 39 15 21 1024.9 1025.3 0.0
29/03:30pm 9.7 3.9 6.2 79 1.6 NNW 26 39 14 21 1024.8 1025.2 0.0
29/03:00pm 10.4 4.6 6.4 76 1.9 NNW 26 33 14 18 1024.9 1025.3 0.0
29/02:30pm 10.4 4.6 6.2 75 2.0 NNW 26 33 14 18 1025.0 1025.4 0.0
29/02:00pm 10.6 5.2 6.2 74 2.1 NW 24 32 13 17 1025.5 1025.9 0.0
29/01:30pm 10.6 4.3 5.8 72 2.2 NNW 28 33 15 18 1025.9 1026.3 0.0
29/01:00pm 11.3 5.9 6.4 72 2.3 NNW 24 33 13 18 1026.3 1026.7 0.0
29/12:43pm 10.6 5.3 6.7 77 1.9 NNW 24 33 13 18 1026.8 1027.3 0.0
29/12:30pm 10.5 4.7 6.3 75 2.0 NNW 26 35 14 19 1027.1 1027.6 0.0
29/12:01pm 9.6 3.9 6.5 81 1.5 NNW 26 33 14 18 1027.7 1028.2 0.0
29/12:00pm 9.5 3.7 6.4 81 1.4 NNW 26 33 14 18 1027.7 1028.2 0.0
29/11:30am 9.7 4.2 5.9 77 1.8 N 24 35 13 19 1027.9 1028.4 0.0
29/11:00am 10.3 4.2 6.8 79 1.7 NNW 28 35 15 19 1028.6 1029.1 0.0
29/10:30am 9.3 3.9 6.2 81 1.4 NNW 24 35 13 19 1028.7 1029.2 0.0
29/10:00am 8.4 2.1 5.9 84 1.1 NNW 28 35 15 19 1028.9 1029.4 0.0
29/09:30am 7.4 2.9 6.0 91 0.6 NNW 19 24 10 13 1029.1 1029.6 0.0
29/09:00am 6.4 1.6 5.8 96 0.3 NNW 20 26 11 14 1029.1 1029.6 0.0
29/08:30am 6.0 1.4 5.7 98 0.1 NNW 19 22 10 12 1029.1 1029.6 0.0
29/08:00am 4.8 0.3 4.4 97 0.2 NNW 17 22 9 12 1029.1 1029.6 0.0
29/07:57am 4.6 0.1 4.3 98 0.1 NNW 17 22 9 12 1029.0 1029.5 0.0
29/07:38am 3.9 -0.3 3.6 98 0.1 N 15 20 8 11 1028.9 1029.4 0.0
29/07:31am 2.7 -1.4 2.4 98 0.1 NNW 13 17 7 9 1028.9 1029.4 0.0
29/07:30am 2.6 -1.1 2.3 98 0.1 NNW 11 17 6 9 1028.9 1029.4 0.0
29/07:05am 3.1 -1.3 2.8 98 0.1 NNW 15 17 8 9 1028.9 1029.4 0.0
29/07:00am 3.4 -0.6 3.1 98 0.1 NNW 13 17 7 9 1028.9 1029.4 0.0
29/06:45am 4.2 0.0 3.8 97 0.2 NNW 15 19 8 10 1028.7 1029.2 0.0
29/06:30am 3.2 -0.8 2.8 97 0.2 N 13 15 7 8 1028.6 1029.1 0.0
29/06:10am 3.7 -0.6 3.3 97 0.2 N 15 20 8 11 1028.5 1029.0 0.0
29/06:07am 4.2 -0.4 3.8 97 0.2 N 17 24 9 13 1028.4 1028.9 0.0
29/06:00am 5.9 1.3 5.6 98 0.1 NNW 19 24 10 13 1028.3 1028.8 0.0
29/05:40am 5.5 1.2 5.1 97 0.2 NNW 17 26 9 14 1028.4 1028.9 0.0
29/05:30am 4.7 1.0 4.3 97 0.2 N 13 17 7 9 1028.4 1028.9 0.0
29/05:28am 4.7 1.0 4.3 97 0.2 N 13 17 7 9 1028.4 1028.9 0.0
29/05:10am 3.7 -0.6 3.3 97 0.2 N 15 19 8 10 1028.2 1028.7 0.0
29/05:09am 3.8 -0.5 3.4 97 0.2 N 15 19 8 10 1028.1 1028.6 0.0
29/05:08am 3.1 -0.9 2.7 97 0.2 N 13 17 7 9 1028.1 1028.6 0.0
29/05:00am 3.8 -0.1 3.4 97 0.2 N 13 15 7 8 1028.0 1028.5 0.0
29/04:35am 4.1 -0.1 3.7 97 0.2 N 15 17 8 9 1028.1 1028.6 0.0
29/04:30am 4.0 -0.2 3.6 97 0.2 N 15 17 8 9 1028.2 1028.7 0.0
29/04:06am 3.3 -0.3 2.9 97 0.2 N 11 13 6 7 1028.2 1028.7 0.0
29/04:00am 4.0 0.9 3.6 97 0.2 N 9 13 5 7 1028.2 1028.7 0.0
29/03:38am 2.4 -2.1 2.0 97 0.2 NNW 15 17 8 9 1028.4 1028.9 0.0
29/03:34am 1.7 -2.6 1.3 97 0.2 NNW 13 17 7 9 1028.3 1028.8 0.0
29/03:33am 1.4 -2.9 1.0 97 0.2 NNW 13 17 7 9 1028.3 1028.8 0.0
29/03:31am 1.2 -3.1 0.8 97 0.2 NNW 13 15 7 8 1028.3 1028.8 0.0
29/03:30am 1.3 -3.0 0.9 97 0.2 NNW 13 15 7 8 1028.3 1028.8 0.0
29/03:27am 2.2 -1.6 1.8 97 0.2 N 11 13 6 7 1028.4 1028.9 0.0
29/03:15am 1.7 -2.6 1.3 97 0.2 N 13 15 7 8 1028.3 1028.8 0.0
29/03:07am 2.8 -1.7 2.4 97 0.2 N 15 15 8 8 1028.2 1028.7 0.0
29/03:03am 2.4 -1.7 2.0 97 0.2 N 13 15 7 8 1028.2 1028.7 0.0
29/03:00am 2.5 -1.2 2.1 97 0.2 N 11 15 6 8 1028.3 1028.8 0.0
29/02:55am 3.5 0.3 3.1 97 0.2 N 9 11 5 6 1028.3 1028.8 0.0
29/02:30am 3.6 0.0 3.2 97 0.2 N 11 13 6 7 1028.4 1028.9 0.0
29/02:20am 2.4 -1.8 1.8 96 0.2 N 13 13 7 7 1028.5 1029.0 0.0
29/02:15am 2.3 -1.9 1.7 96 0.2 N 13 13 7 7 1028.5 1029.0 0.0
29/02:00am 3.6 0.4 3.0 96 0.2 N 9 13 5 7 1028.5 1029.0 0.0
29/01:43am 4.3 1.2 3.7 96 0.3 N 9 9 5 5 1028.6 1029.1 0.0
29/01:39am 4.7 1.7 4.3 97 0.2 N 9 11 5 6 1028.6 1029.1 0.0
29/01:30am 4.2 1.5 3.6 96 0.3 N 7 9 4 5 1028.5 1029.0 0.0
29/01:00am 4.1 1.0 3.5 96 0.2 N 9 9 5 5 1028.8 1029.3 0.0
29/12:36am 3.7 0.1 3.0 95 0.3 NNE 11 13 6 7 1028.9 1029.4 0.0
29/12:30am 3.5 0.3 2.8 95 0.3 NNE 9 13 5 7 1028.9 1029.4 0.0
29/12:00am 4.2 0.7 3.3 94 0.4 NNE 11 17 6 9 1029.0 1029.5 0.0
 
Date/Time
EST
Temp
°C
App
Temp
°C
Dew
Point
Rel
Hum
%
Delta-T
°C
Wind Press
QNH
hPa
Press
MSL
hPa
Rain
since 9 am
mm
Dir
 
Spd
km/h
Gust
km/h
Spd
kts
Gust
kts
28/11:56pm 4.3 0.4 3.4 94 0.4 N 13 17 7 9 1029.0 1029.5 0.0
28/11:54pm 4.7 0.9 4.0 95 0.3 N 13 17 7 9 1029.0 1029.5 0.0
28/11:30pm 4.6 0.7 3.6 93 0.4 NNW 13 15 7 8 1028.9 1029.4 0.0
28/11:00pm 5.9 1.5 5.0 94 0.4 NNW 17 22 9 12 1028.8 1029.3 0.0
28/10:30pm 5.8 1.4 4.8 93 0.4 N 17 19 9 10 1028.7 1029.2 0.0
28/10:00pm 5.2 1.5 4.3 94 0.4 N 13 15 7 8 1028.6 1029.1 0.0
28/09:30pm 5.5 2.5 4.2 91 0.6 N 9 13 5 7 1028.5 1029.0 0.0
28/09:00pm 7.6 3.1 6.9 95 0.3 NNW 20 24 11 13 1028.3 1028.8 0.0
28/08:30pm 5.6 1.6 4.7 94 0.4 NNW 15 17 8 9 1028.2 1028.7 0.0
28/08:00pm 6.2 3.0 5.2 93 0.4 NNW 11 13 6 7 1028.2 1028.7 0.0
28/07:30pm 7.5 3.0 6.1 91 0.6 NNW 19 20 10 11 1028.1 1028.6 0.0
28/07:00pm 6.9 2.8 6.0 94 0.4 N 17 20 9 11 1028.1 1028.6 0.0
28/06:30pm 7.4 4.1 6.2 92 0.5 NNW 13 15 7 8 1027.7 1028.2 0.0
28/06:00pm 7.6 4.2 5.7 88 0.9 NW 13 17 7 9 1027.4 1027.9 0.0
28/05:30pm 9.0 4.7 7.0 87 0.9 NW 19 24 10 13 1027.1 1027.6 0.0
28/05:00pm 10.3 6.0 6.8 79 1.7 NNW 19 22 10 12 1027.0 1027.5 0.0
28/04:30pm 12.0 7.6 6.7 70 2.5 NW 19 24 10 13 1026.8 1027.3 0.0
28/04:00pm 12.7 8.1 5.6 62 3.3 NW 19 24 10 13 1026.5 1026.9 0.0
28/03:30pm 13.2 8.7 6.1 62 3.4 NW 19 24 10 13 1026.4 1026.8 0.0
28/03:00pm 13.1 8.5 5.5 60 3.6 NW 19 24 10 13 1026.3 1026.7 0.0
28/02:30pm 12.9 7.5 4.6 57 3.8 NW 22 28 12 15 1026.3 1026.7 0.0
28/02:00pm 13.5 9.2 5.2 57 3.9 NW 17 24 9 13 1026.3 1026.7 0.0
28/01:30pm 13.0 8.6 4.9 58 3.8 NW 17 24 9 13 1026.4 1026.8 0.0
28/01:00pm 12.8 7.5 5.2 60 3.5 NNW 22 30 12 16 1026.5 1026.9 0.0
28/12:30pm 12.4 7.2 5.6 63 3.2 NNW 22 28 12 15 1026.7 1027.2 0.0
28/12:00pm 12.1 7.9 5.7 65 3.0 N 17 22 9 12 1027.0 1027.5 0.0
28/11:30am 11.8 7.5 5.2 64 3.1 NNW 17 20 9 11 1027.2 1027.7 0.0
28/11:00am 11.0 7.1 5.3 68 2.6 NNW 15 20 8 11 1027.5 1028.0 0.0
28/10:30am 10.1 5.9 5.5 73 2.1 N 17 22 9 12 1027.5 1028.0 0.0
28/10:00am 8.7 4.3 4.9 77 1.7 NNW 17 20 9 11 1027.3 1027.8 0.0
28/09:30am 8.0 4.8 5.3 83 1.2 N 11 15 6 8 1027.1 1027.6 0.0
28/09:00am 6.8 2.9 5.3 90 0.7 NW 15 20 8 11 1026.8 1027.3 0.0
28/08:30am 5.6 1.9 4.2 91 0.6 NNE 13 17 7 9 1026.9 1027.4 0.0
28/08:00am 5.6 2.2 4.1 90 0.6 NNE 11 20 6 11 1026.3 1026.7 0.0
28/07:30am 5.5 1.8 4.3 92 0.5 NNW 13 17 7 9 1025.8 1026.2 0.0
28/07:00am 3.9 0.2 2.6 91 0.5 NW 11 15 6 8 1025.4 1025.8 0.0
28/06:30am 3.9 -0.1 2.6 91 0.5 N 13 17 7 9 1025.0 1025.4 0.0

Other Formats:

Comma delimited format used in spreadsheet applications
http://www.bom.gov.au/fwo/IDT60801/IDT60801.95966.axf

JavaScript Object Notation format (JSON) in row-major order
http://www.bom.gov.au/fwo/IDT60801/IDT60801.95966.json